Decoded Metar for PABA (BARTER ISLAND in AK, USA) (IATA:BTI) | Meteo·Mobile Aviation Weather
aviador You're here:

PABA Decoded Metar

BARTER ISLAND in AK, USA
Report Time2020-02-25 19:52:00
UTC Time2020-02-25 20:47:04
Flight Rules vfr VFR
Wind260° at 10 kt
W.Decomp.*RWY 25: 9.6 kt HW 2.9 kt LCW
Visibility9999 m
Phenomena:N/A
Clouds:Overcast 070 Hf
Expected CloudBase > 2,000 ft AGL from Temp-Dew spread
Ceiling7,000 ft
Temp-24°C (ISA -39)
Dew Point-29°C (63% RH)
AAT-31.4°C
QNH1022 hPa
Density Alt-5,341 ft
Elevation7 ft
Report Wrong Elevation
Raw Report
PABA 251952Z AUTO 26010KT 10SM OVC070 M24/M29 A3018=

Extra information for PABA:More info

Airport Information Weather charts Add Link Nearby Venues Social comments

AIRNAV info for PABA